Time,TemperatureF,DewpointF,PressureIn,WindDirection,WindDirectionDegrees,WindSpeedMPH,WindSpeedGustMPH,Humidity,HourlyPrecipIn,Conditions,Clouds,dailyrainin,SoftwareType,DateUTC
2013-05-07 00:13:00,56.1,51.0,30.83,SSW,196,0.0,-999.0,82,-99.99,,,0.00,weatherlink.com 1.10,2013-05-07 05:13:00,
2013-05-07 00:23:00,55.7,51.0,30.83,SSW,196,0.0,-999.0,83,-99.99,,,0.00,weatherlink.com 1.10,2013-05-07 05:23:00,
2013-05-07 00:38:00,55.3,51.0,30.83,SSW,196,0.0,-999.0,84,-99.99,,,0.00,weatherlink.com 1.10,2013-05-07 05:38:00,
2013-05-07 00:53:00,55.0,50.0,30.83,SSW,196,0.0,-999.0,84,-99.99,,,0.00,weatherlink.com 1.10,2013-05-07 05:53:00,
2013-05-07 01:13:00,54.7,50.0,30.83,SSW,196,0.0,-999.0,85,-99.99,,,0.00,weatherlink.com 1.10,2013-05-07 06:13:00,
2013-05-07 01:23:00,54.5,50.0,30.83,SSW,196,0.0,-999.0,86,-99.99,,,0.00,weatherlink.com 1.10,2013-05-07 06:23:00,
2013-05-07 01:38:00,54.2,50.0,30.83,SSW,196,0.0,-999.0,86,-99.99,,,0.00,weatherlink.com 1.10,2013-05-07 06:38:00,
2013-05-07 01:53:00,53.9,50.0,30.83,SSW,196,0.0,-999.0,86,-99.99,,,0.00,weatherlink.com 1.10,2013-05-07 06:53:00,
2013-05-07 02:13:00,53.7,50.0,30.83,SSW,196,0.0,-999.0,86,-99.99,,,0.00,weatherlink.com 1.10,2013-05-07 07:13:00,
2013-05-07 02:23:00,53.3,49.0,30.83,SSW,196,0.0,-999.0,86,-99.99,,,0.00,weatherlink.com 1.10,2013-05-07 07:23:00,
2013-05-07 02:38:00,53.0,49.0,30.83,SSW,196,0.0,-999.0,86,-99.99,,,0.00,weatherlink.com 1.10,2013-05-07 07:38:00,
2013-05-07 02:53:00,52.7,49.0,30.83,SSW,196,0.0,-999.0,87,-99.99,,,0.00,weatherlink.com 1.10,2013-05-07 07:53:00,
2013-05-07 03:13:00,52.5,49.0,30.83,SSW,196,0.0,-999.0,88,-99.99,,,0.00,weatherlink.com 1.10,2013-05-07 08:13:00,
2013-05-07 03:23:00,52.3,49.0,30.83,SSW,196,0.0,-999.0,88,-99.99,,,0.00,weatherlink.com 1.10,2013-05-07 08:23:00,
2013-05-07 03:38:00,51.9,49.0,30.83,SSW,196,0.0,-999.0,88,-99.99,,,0.00,weatherlink.com 1.10,2013-05-07 08:38:00,
2013-05-07 03:53:00,51.8,49.0,30.83,SSW,196,0.0,-999.0,89,-99.99,,,0.00,weatherlink.com 1.10,2013-05-07 08:53:00,
2013-05-07 04:14:00,51.5,48.0,30.83,SSW,196,0.0,-999.0,89,-99.99,,,0.00,weatherlink.com 1.10,2013-05-07 09:14:00,
2013-05-07 04:24:00,51.3,48.0,30.83,SSW,196,0.0,-999.0,89,-99.99,,,0.00,weatherlink.com 1.10,2013-05-07 09:24:00,
2013-05-07 04:39:00,51.3,48.0,30.84,SSW,196,0.0,-999.0,89,-99.99,,,0.00,weatherlink.com 1.10,2013-05-07 09:39:00,
2013-05-07 04:54:00,51.0,48.0,30.83,SSW,196,0.0,-999.0,89,-99.99,,,0.00,weatherlink.com 1.10,2013-05-07 09:54:00,
2013-05-07 05:14:00,50.9,48.0,30.83,SSW,196,0.0,-999.0,90,-99.99,,,0.00,weatherlink.com 1.10,2013-05-07 10:14:00,
2013-05-07 05:24:00,50.8,48.0,30.83,SSW,196,0.0,-999.0,90,-99.99,,,0.00,weatherlink.com 1.10,2013-05-07 10:24:00,
2013-05-07 05:39:00,50.6,48.0,30.83,SSW,196,0.0,-999.0,90,-99.99,,,0.00,weatherlink.com 1.10,2013-05-07 10:39:00,
2013-05-07 05:54:00,50.8,48.0,30.84,SSW,196,0.0,-999.0,90,-99.99,,,0.00,weatherlink.com 1.10,2013-05-07 10:54:00,
2013-05-07 06:14:00,50.5,48.0,30.84,SSW,196,0.0,-999.0,90,-99.99,,,0.00,weatherlink.com 1.10,2013-05-07 11:14:00,
2013-05-07 06:24:00,50.4,48.0,30.84,SSW,196,0.0,-999.0,90,-99.99,,,0.00,weatherlink.com 1.10,2013-05-07 11:24:00,
2013-05-07 06:39:00,50.2,47.0,30.85,SSW,196,0.0,-999.0,90,-99.99,,,0.00,weatherlink.com 1.10,2013-05-07 11:39:00,
2013-05-07 06:54:00,50.0,48.0,30.86,SSW,196,0.0,-999.0,91,-99.99,,,0.00,weatherlink.com 1.10,2013-05-07 11:54:00,
2013-05-07 07:14:00,50.6,48.0,30.86,SSW,196,0.0,-999.0,91,-99.99,,,0.00,weatherlink.com 1.10,2013-05-07 12:14:00,
2013-05-07 07:24:00,52.4,50.0,30.87,SSW,196,0.0,-999.0,92,-99.99,,,0.00,weatherlink.com 1.10,2013-05-07 12:24:00,
2013-05-07 07:39:00,54.8,53.0,30.87,SSW,196,0.0,-999.0,93,-99.99,,,0.00,weatherlink.com 1.10,2013-05-07 12:39:00,
2013-05-07 07:54:00,57.2,55.0,30.87,SSW,196,0.0,-999.0,93,-99.99,,,0.00,weatherlink.com 1.10,2013-05-07 12:54:00,
2013-05-07 08:14:00,59.2,57.0,30.87,SSW,196,0.0,-999.0,91,-99.99,,,0.00,weatherlink.com 1.10,2013-05-07 13:14:00,
2013-05-07 08:24:00,62.2,57.0,30.87,SSW,196,0.0,-999.0,84,-99.99,,,0.00,weatherlink.com 1.10,2013-05-07 13:24:00,
2013-05-07 08:39:00,64.8,57.0,30.86,SSW,196,0.0,-999.0,75,-99.99,,,0.00,weatherlink.com 1.10,2013-05-07 13:39:00,
2013-05-07 08:54:00,66.8,57.0,30.87,SSW,197,0.0,-999.0,71,-99.99,,,0.00,weatherlink.com 1.10,2013-05-07 13:54:00,
2013-05-07 09:14:00,68.2,58.0,30.87,SSW,197,2.0,-999.0,70,-99.99,,,0.00,weatherlink.com 1.10,2013-05-07 14:14:00,
2013-05-07 09:24:00,69.6,58.0,30.87,SSW,198,1.0,-999.0,66,-99.99,,,0.00,weatherlink.com 1.10,2013-05-07 14:24:00,
2013-05-07 09:39:00,70.6,58.0,30.88,SSW,197,0.0,-999.0,64,-99.99,,,0.00,weatherlink.com 1.10,2013-05-07 14:39:00,
2013-05-07 09:54:00,71.8,57.0,30.88,South,182,2.0,-999.0,60,-99.99,,,0.00,weatherlink.com 1.10,2013-05-07 14:54:00,
2013-05-07 10:14:00,73.4,58.0,30.87,South,171,0.0,-999.0,58,-99.99,,,0.00,weatherlink.com 1.10,2013-05-07 15:14:00,
2013-05-07 10:24:00,74.5,58.0,30.87,SSE,159,0.0,-999.0,56,-99.99,,,0.00,weatherlink.com 1.10,2013-05-07 15:24:00,
2013-05-07 10:39:00,75.4,56.0,30.87,South,189,1.0,-999.0,52,-99.99,,,0.00,weatherlink.com 1.10,2013-05-07 15:39:00,
2013-05-07 10:54:00,76.4,56.0,30.88,SE,135,0.0,-999.0,50,-99.99,,,0.00,weatherlink.com 1.10,2013-05-07 15:54:00,
2013-05-07 11:15:00,76.9,57.0,30.87,SSW,196,0.0,-999.0,50,-99.99,,,0.00,weatherlink.com 1.10,2013-05-07 16:15:00,
2013-05-07 11:24:00,77.6,57.0,30.87,ENE,73,0.0,-999.0,49,-99.99,,,0.00,weatherlink.com 1.10,2013-05-07 16:24:00,
2013-05-07 11:39:00,78.8,56.0,30.87,ENE,59,2.0,-999.0,46,-99.99,,,0.00,weatherlink.com 1.10,2013-05-07 16:39:00,
2013-05-07 11:54:00,78.8,57.0,30.86,SE,142,0.0,-999.0,47,-99.99,,,0.00,weatherlink.com 1.10,2013-05-07 16:54:00,
2013-05-07 12:15:00,79.1,57.0,30.86,SSW,192,2.0,-999.0,46,-99.99,,,0.00,weatherlink.com 1.10,2013-05-07 17:15:00,
2013-05-07 12:25:00,79.6,55.0,30.85,South,185,2.0,-999.0,43,-99.99,,,0.00,weatherlink.com 1.10,2013-05-07 17:25:00,
2013-05-07 12:40:00,80.5,56.0,30.84,South,186,5.0,-999.0,43,-99.99,,,0.00,weatherlink.com 1.10,2013-05-07 17:40:00,
2013-05-07 12:55:00,81.3,57.0,30.84,SSE,161,5.0,-999.0,43,-99.99,,,0.00,weatherlink.com 1.10,2013-05-07 17:55:00,
2013-05-07 13:15:00,81.5,57.0,30.82,SSW,198,0.0,-999.0,43,-99.99,,,0.00,weatherlink.com 1.10,2013-05-07 18:15:00,
2013-05-07 13:24:00,81.9,57.0,30.82,SSE,161,5.0,-999.0,42,-99.99,,,0.00,weatherlink.com 1.10,2013-05-07 18:24:00,
2013-05-07 13:39:00,81.9,55.0,30.81,South,179,1.0,-999.0,40,-99.99,,,0.00,weatherlink.com 1.10,2013-05-07 18:39:00,
2013-05-07 13:54:00,82.2,57.0,30.80,SSW,207,0.0,-999.0,42,-99.99,,,0.00,weatherlink.com 1.10,2013-05-07 18:54:00,
2013-05-07 14:15:00,82.9,57.0,30.80,SSW,196,4.0,-999.0,41,-99.99,,,0.00,weatherlink.com 1.10,2013-05-07 19:15:00,
2013-05-07 14:24:00,83.7,58.0,30.80,SSW,204,9.0,-999.0,41,-99.99,,,0.00,weatherlink.com 1.10,2013-05-07 19:24:00,
2013-05-07 14:39:00,83.1,57.0,30.80,ENE,58,4.0,-999.0,41,-99.99,,,0.00,weatherlink.com 1.10,2013-05-07 19:39:00,
2013-05-07 14:54:00,83.6,56.0,30.79,South,175,6.0,-999.0,39,-99.99,,,0.00,weatherlink.com 1.10,2013-05-07 19:54:00,
2013-05-07 15:15:00,83.8,57.0,30.79,South,184,2.0,-999.0,40,-99.99,,,0.00,weatherlink.com 1.10,2013-05-07 20:15:00,
2013-05-07 15:24:00,84.8,57.0,30.78,South,184,9.0,-999.0,39,-99.99,,,0.00,weatherlink.com 1.10,2013-05-07 20:24:00,
2013-05-07 15:39:00,84.8,56.0,30.77,ENE,74,1.0,-999.0,38,-99.99,,,0.00,weatherlink.com 1.10,2013-05-07 20:39:00,
2013-05-07 15:54:00,84.3,57.0,30.77,South,184,5.0,-999.0,39,-99.99,,,0.00,weatherlink.com 1.10,2013-05-07 20:54:00,
2013-05-07 16:15:00,85.3,58.0,30.76,SSE,161,2.0,-999.0,39,-99.99,,,0.00,weatherlink.com 1.10,2013-05-07 21:15:00,
2013-05-07 16:25:00,85.4,56.0,30.75,SSE,152,9.0,-999.0,36,-99.99,,,0.00,weatherlink.com 1.10,2013-05-07 21:25:00,
2013-05-07 16:40:00,84.5,56.0,30.75,SSE,150,3.0,-999.0,38,-99.99,,,0.00,weatherlink.com 1.10,2013-05-07 21:40:00,
2013-05-07 16:55:00,84.7,56.0,30.75,South,176,9.0,-999.0,37,-99.99,,,0.00,weatherlink.com 1.10,2013-05-07 21:55:00,
2013-05-07 17:15:00,84.7,57.0,30.75,South,178,7.0,-999.0,39,-99.99,,,0.00,weatherlink.com 1.10,2013-05-07 22:15:00,
2013-05-07 17:25:00,84.7,57.0,30.75,South,178,8.0,-999.0,39,-99.99,,,0.00,weatherlink.com 1.10,2013-05-07 22:25:00,
2013-05-07 17:40:00,84.6,56.0,30.75,SSE,157,6.0,-999.0,38,-99.99,,,0.00,weatherlink.com 1.10,2013-05-07 22:40:00,
2013-05-07 17:55:00,84.3,58.0,30.75,SSW,194,6.0,-999.0,41,-99.99,,,0.00,weatherlink.com 1.10,2013-05-07 22:55:00,
2013-05-07 18:15:00,83.7,58.0,30.74,SSE,165,4.0,-999.0,42,-99.99,,,0.00,weatherlink.com 1.10,2013-05-07 23:15:00,
2013-05-07 18:25:00,83.0,58.0,30.74,SSE,167,3.0,-999.0,42,-99.99,,,0.00,weatherlink.com 1.10,2013-05-07 23:25:00,
2013-05-07 18:40:00,82.3,57.0,30.74,South,180,4.0,-999.0,42,-99.99,,,0.00,weatherlink.com 1.10,2013-05-07 23:40:00,
2013-05-07 18:55:00,81.9,57.0,30.74,SSE,159,4.0,-999.0,43,-99.99,,,0.00,weatherlink.com 1.10,2013-05-07 23:55:00,
2013-05-07 19:15:00,81.1,58.0,30.74,South,185,3.0,-999.0,45,-99.99,,,0.00,weatherlink.com 1.10,2013-05-08 00:15:00,
2013-05-07 19:24:00,80.4,58.0,30.74,ESE,107,2.0,-999.0,47,-99.99,,,0.00,weatherlink.com 1.10,2013-05-08 00:24:00,
2013-05-07 19:39:00,78.8,57.0,30.74,South,177,1.0,-999.0,48,-99.99,,,0.00,weatherlink.com 1.10,2013-05-08 00:39:00,
2013-05-07 19:54:00,77.5,58.0,30.74,South,177,0.0,-999.0,51,-99.99,,,0.00,weatherlink.com 1.10,2013-05-08 00:54:00,
2013-05-07 20:15:00,75.1,58.0,30.74,South,177,0.0,-999.0,55,-99.99,,,0.00,weatherlink.com 1.10,2013-05-08 01:15:00,
2013-05-07 20:24:00,73.5,58.0,30.74,South,177,0.0,-999.0,58,-99.99,,,0.00,weatherlink.com 1.10,2013-05-08 01:24:00,
2013-05-07 20:39:00,72.3,58.0,30.75,South,177,1.0,-999.0,60,-99.99,,,0.00,weatherlink.com 1.10,2013-05-08 01:39:00,
2013-05-07 20:54:00,71.7,57.0,30.75,South,177,1.0,-999.0,61,-99.99,,,0.00,weatherlink.com 1.10,2013-05-08 01:54:00,
2013-05-07 21:15:00,71.3,57.0,30.75,South,177,1.0,-999.0,62,-99.99,,,0.00,weatherlink.com 1.10,2013-05-08 02:15:00,
2013-05-07 21:24:00,71.0,57.0,30.75,South,177,0.0,-999.0,62,-99.99,,,0.00,weatherlink.com 1.10,2013-05-08 02:24:00,
2013-05-07 21:39:00,70.2,57.0,30.75,South,177,0.0,-999.0,64,-99.99,,,0.00,weatherlink.com 1.10,2013-05-08 02:39:00,
2013-05-07 21:54:00,69.5,57.0,30.76,South,177,0.0,-999.0,65,-99.99,,,0.00,weatherlink.com 1.10,2013-05-08 02:54:00,
2013-05-07 22:15:00,69.2,57.0,30.77,South,178,1.0,-999.0,66,-99.99,,,0.00,weatherlink.com 1.10,2013-05-08 03:15:00,
2013-05-07 22:25:00,69.9,58.0,30.77,South,170,2.0,-999.0,65,-99.99,,,0.00,weatherlink.com 1.10,2013-05-08 03:25:00,
2013-05-07 22:40:00,69.2,57.0,30.77,SSE,168,7.0,-999.0,66,-99.99,,,0.00,weatherlink.com 1.10,2013-05-08 03:40:00,
2013-05-07 22:55:00,69.1,58.0,30.77,South,171,4.0,-999.0,67,-99.99,,,0.00,weatherlink.com 1.10,2013-05-08 03:55:00,
2013-05-07 23:15:00,68.4,57.0,30.78,South,174,3.0,-999.0,68,-99.99,,,0.00,weatherlink.com 1.10,2013-05-08 04:15:00,
2013-05-07 23:25:00,68.0,57.0,30.78,SSE,157,3.0,-999.0,68,-99.99,,,0.00,weatherlink.com 1.10,2013-05-08 04:25:00,
2013-05-07 23:40:00,67.4,57.0,30.79,SSE,161,6.0,-999.0,70,-99.99,,,0.00,weatherlink.com 1.10,2013-05-08 04:40:00,
2013-05-07 23:55:00,67.0,57.0,30.79,South,173,5.0,-999.0,71,-99.99,,,0.00,weatherlink.com 1.10,2013-05-08 04:55:00,